메인 페이지
METAR-TAF:

METAR-TAF

공항 :

칭기즈 칸 국제공항

울란바토르, 몽골

위도: 47-55N, 경도: 106-52E, 고도: 1306m

현재 날씨관측

예보는 13분 전, 23:30시(UTC)에 발표되었습니다.
북서8kt풍과 풍을 오가는
온도 7°C
습도 42%
기압 1014 hPa
시정 10km 이상
고도 10000ft 상공 구름 보통

METAR: ZMUB 262330Z 32004MPS 270V360 9999 SCT100 07/M05 Q1014 NOSIG RMK QFE653.4 43 MOP

시각: 08:43 (23:43 UTC)

예보

예보는 1 시간 3분 전, 22:40시(UTC)에 발표되었습니다.
예보 대상 시간: 27일 00시부터 28일 06시까지 (UTC)
북북서10kt
시정 10km 이상
고도 3000ft 상공 구름 조금, 적란운.
고도 3300ft 상공 구름 보통
일시적
27일 00시부터 27일 06시까지 (UTC)
여러 방향의 바람 16kt
고도 3000ft 상공 구름 보통, 적란운.
고도 3300ft 상공 구름 보통
약한소나기
전환 중
27일 01시부터 27일 03시까지 (UTC)
북북서19kt, 순간 최대 풍속 29kt
전환 중
27일 11시부터 27일 13시까지 (UTC)
여러 방향의 바람 4kt
고도 3300ft 상공 구름 보통

TAF: ZMUB 262240Z 2700/2806 33005MPS 9999 FEW030CB SCT033 TX14/2707Z TN00/2722Z TEMPO 2700/2706 VRB08MPS -SHRA SCT030CB SCT033 BECMG 2701/2703 34010G15MPS DRDS BECMG 2711/2713 VRB02MPS NSW SCT033

4,000개 이상의 공항 관측 자료 및 예보 (METAR 및 TAF 보고).

지도상에서 검색 가능한 기상관측소가 노란 점과 빨간 점으로 표시되어 있습니다.

기상관측소 명을 보려면 표시 위로 마우스를 이동하세요.

날씨 관측과 예보를 보려면 클릭하세요.

지도 변경 : 확대하려면 엑스 표시가 있는 녹색 버튼, 축소하려면 빼기 표시가 있는 녹색 버튼, 다음 페이지의 지도를 보려면 녹색 화살표를 클릭하세요.


METAR-TAF: